Terminal Aerodrome Forecast
Issued by NWS

Home | Current Version | Previous Version | Text Only | Print | Product List | Glossary On
Versions: 1 2 3 4 5 6 7 8 9 10 11 12
624
FTUS46 KEKA 241120
TAFUKI
TAF
KUKI 241120Z 2412/2512 15004KT P6SM SKC
     FM241900 15011KT P6SM SKC
     FM250300 16004KT P6SM SKC
     FM250900 16005KT P6SM SCT015=

USA.gov is the U.S. government's official web portal to all federal, state and local government web resources and services.